sensor_id;sensor_type;location;lat;lon;timestamp;temperature;humidity
9125;DHT22;4597;48.730;9.114;2023-03-14T00:00:11;10.60;99.90
9125;DHT22;4597;48.730;9.114;2023-03-14T00:02:37;10.50;99.90
9125;DHT22;4597;48.730;9.114;2023-03-14T00:05:03;10.50;99.90
9125;DHT22;4597;48.730;9.114;2023-03-14T00:07:35;10.50;99.90
9125;DHT22;4597;48.730;9.114;2023-03-14T00:10:07;10.50;99.90
9125;DHT22;4597;48.730;9.114;2023-03-14T00:12:33;10.50;99.90
9125;DHT22;4597;48.730;9.114;2023-03-14T00:14:59;10.50;99.90
9125;DHT22;4597;48.730;9.114;2023-03-14T00:17:26;10.50;99.90
9125;DHT22;4597;48.730;9.114;2023-03-14T00:19:52;10.50;99.90
9125;DHT22;4597;48.730;9.114;2023-03-14T00:22:19;10.50;99.90
9125;DHT22;4597;48.730;9.114;2023-03-14T00:24:45;10.40;99.90
9125;DHT22;4597;48.730;9.114;2023-03-14T00:27:10;10.50;99.90
9125;DHT22;4597;48.730;9.114;2023-03-14T00:29:36;10.50;99.90
9125;DHT22;4597;48.730;9.114;2023-03-14T00:32:01;10.50;99.90
9125;DHT22;4597;48.730;9.114;2023-03-14T00:34:33;10.50;99.90
9125;DHT22;4597;48.730;9.114;2023-03-14T00:36:59;10.50;99.90
9125;DHT22;4597;48.730;9.114;2023-03-14T00:39:24;10.50;99.90
9125;DHT22;4597;48.730;9.114;2023-03-14T00:41:50;10.50;99.90
9125;DHT22;4597;48.730;9.114;2023-03-14T00:44:15;10.50;99.90
9125;DHT22;4597;48.730;9.114;2023-03-14T00:46:40;10.60;99.90
9125;DHT22;4597;48.730;9.114;2023-03-14T00:49:06;10.60;99.90
9125;DHT22;4597;48.730;9.114;2023-03-14T00:51:31;10.60;99.90
9125;DHT22;4597;48.730;9.114;2023-03-14T00:53:57;10.60;99.90
9125;DHT22;4597;48.730;9.114;2023-03-14T00:56:22;10.60;99.90
9125;DHT22;4597;48.730;9.114;2023-03-14T00:58:48;10.60;99.90
9125;DHT22;4597;48.730;9.114;2023-03-14T01:01:18;10.60;99.90
9125;DHT22;4597;48.730;9.114;2023-03-14T01:03:44;10.60;99.90
9125;DHT22;4597;48.730;9.114;2023-03-14T01:06:24;10.60;99.90
9125;DHT22;4597;48.730;9.114;2023-03-14T01:08:50;10.60;99.90
9125;DHT22;4597;48.730;9.114;2023-03-14T01:11:19;10.60;99.90
9125;DHT22;4597;48.730;9.114;2023-03-14T01:13:46;10.60;99.90
9125;DHT22;4597;48.730;9.114;2023-03-14T01:16:12;10.60;99.90
9125;DHT22;4597;48.730;9.114;2023-03-14T01:18:39;10.60;99.90
9125;DHT22;4597;48.730;9.114;2023-03-14T01:21:17;10.60;99.90
9125;DHT22;4597;48.730;9.114;2023-03-14T01:23:44;10.60;99.90
9125;DHT22;4597;48.730;9.114;2023-03-14T01:26:12;10.60;99.90
9125;DHT22;4597;48.730;9.114;2023-03-14T01:28:38;10.70;99.90
9125;DHT22;4597;48.730;9.114;2023-03-14T01:31:05;10.70;99.90
9125;DHT22;4597;48.730;9.114;2023-03-14T01:33:31;10.70;99.90
9125;DHT22;4597;48.730;9.114;2023-03-14T01:35:56;10.70;99.90
9125;DHT22;4597;48.730;9.114;2023-03-14T01:38:22;10.70;99.90
9125;DHT22;4597;48.730;9.114;2023-03-14T01:40:47;10.70;99.90
9125;DHT22;4597;48.730;9.114;2023-03-14T01:43:18;10.70;99.90
9125;DHT22;4597;48.730;9.114;2023-03-14T01:48:37;10.70;99.90
9125;DHT22;4597;48.730;9.114;2023-03-14T01:51:09;10.60;99.90
9125;DHT22;4597;48.730;9.114;2023-03-14T01:53:36;10.70;99.90
9125;DHT22;4597;48.730;9.114;2023-03-14T01:56:05;10.70;99.90
9125;DHT22;4597;48.730;9.114;2023-03-14T01:58:32;10.70;99.90
9125;DHT22;4597;48.730;9.114;2023-03-14T02:01:01;10.60;99.90
9125;DHT22;4597;48.730;9.114;2023-03-14T02:03:29;10.60;99.90
9125;DHT22;4597;48.730;9.114;2023-03-14T02:05:59;10.60;99.90
9125;DHT22;4597;48.730;9.114;2023-03-14T02:08:27;10.70;99.90
9125;DHT22;4597;48.730;9.114;2023-03-14T02:10:53;10.70;99.90
9125;DHT22;4597;48.730;9.114;2023-03-14T02:13:19;10.60;99.90
9125;DHT22;4597;48.730;9.114;2023-03-14T02:15:47;10.60;99.90
9125;DHT22;4597;48.730;9.114;2023-03-14T02:18:14;10.60;99.90
9125;DHT22;4597;48.730;9.114;2023-03-14T02:20:50;10.60;99.90
9125;DHT22;4597;48.730;9.114;2023-03-14T02:23:27;10.50;99.90
9125;DHT22;4597;48.730;9.114;2023-03-14T02:26:01;10.50;99.90
9125;DHT22;4597;48.730;9.114;2023-03-14T02:28:28;10.50;99.90
9125;DHT22;4597;48.730;9.114;2023-03-14T02:30:54;10.60;99.90
9125;DHT22;4597;48.730;9.114;2023-03-14T02:33:20;10.60;99.90
9125;DHT22;4597;48.730;9.114;2023-03-14T02:36:00;10.50;99.90
9125;DHT22;4597;48.730;9.114;2023-03-14T02:41:13;10.50;99.90
9125;DHT22;4597;48.730;9.114;2023-03-14T02:43:39;10.50;99.90
9125;DHT22;4597;48.730;9.114;2023-03-14T02:46:05;10.40;99.90
9125;DHT22;4597;48.730;9.114;2023-03-14T02:48:35;10.40;99.90
9125;DHT22;4597;48.730;9.114;2023-03-14T02:51:01;10.50;99.90
9125;DHT22;4597;48.730;9.114;2023-03-14T02:53:33;10.40;99.90
9125;DHT22;4597;48.730;9.114;2023-03-14T02:55:59;10.40;99.90
9125;DHT22;4597;48.730;9.114;2023-03-14T02:58:25;10.40;99.90
9125;DHT22;4597;48.730;9.114;2023-03-14T03:00:51;10.40;99.90
9125;DHT22;4597;48.730;9.114;2023-03-14T03:03:16;10.40;99.90
9125;DHT22;4597;48.730;9.114;2023-03-14T03:05:42;10.40;99.90
9125;DHT22;4597;48.730;9.114;2023-03-14T03:08:09;10.40;99.90
9125;DHT22;4597;48.730;9.114;2023-03-14T03:10:35;10.40;99.90
9125;DHT22;4597;48.730;9.114;2023-03-14T03:13:01;10.40;99.90
9125;DHT22;4597;48.730;9.114;2023-03-14T03:15:26;10.40;99.90
9125;DHT22;4597;48.730;9.114;2023-03-14T03:17:52;10.30;99.90
9125;DHT22;4597;48.730;9.114;2023-03-14T03:20:17;10.30;99.90
9125;DHT22;4597;48.730;9.114;2023-03-14T03:22:43;10.30;99.90
9125;DHT22;4597;48.730;9.114;2023-03-14T03:25:09;10.40;99.90
9125;DHT22;4597;48.730;9.114;2023-03-14T03:27:37;10.40;99.90
9125;DHT22;4597;48.730;9.114;2023-03-14T03:30:04;10.30;99.90
9125;DHT22;4597;48.730;9.114;2023-03-14T03:32:30;10.30;99.90
9125;DHT22;4597;48.730;9.114;2023-03-14T03:34:56;10.30;99.90
9125;DHT22;4597;48.730;9.114;2023-03-14T03:37:22;10.30;99.90
9125;DHT22;4597;48.730;9.114;2023-03-14T03:39:50;10.30;99.90
9125;DHT22;4597;48.730;9.114;2023-03-14T03:42:15;10.30;99.90
9125;DHT22;4597;48.730;9.114;2023-03-14T03:44:41;10.30;99.90
9125;DHT22;4597;48.730;9.114;2023-03-14T03:47:06;10.30;99.90
9125;DHT22;4597;48.730;9.114;2023-03-14T03:49:32;10.40;99.90
9125;DHT22;4597;48.730;9.114;2023-03-14T03:51:58;10.30;99.90
9125;DHT22;4597;48.730;9.114;2023-03-14T03:54:24;10.30;99.90
9125;DHT22;4597;48.730;9.114;2023-03-14T03:56:49;10.30;99.90
9125;DHT22;4597;48.730;9.114;2023-03-14T03:59:15;10.30;99.90
9125;DHT22;4597;48.730;9.114;2023-03-14T04:01:41;10.30;99.90
9125;DHT22;4597;48.730;9.114;2023-03-14T04:04:07;10.30;99.90
9125;DHT22;4597;48.730;9.114;2023-03-14T04:06:32;10.30;99.90
9125;DHT22;4597;48.730;9.114;2023-03-14T04:08:58;10.20;99.90
9125;DHT22;4597;48.730;9.114;2023-03-14T04:11:24;10.20;99.90
9125;DHT22;4597;48.730;9.114;2023-03-14T04:13:49;10.20;99.90
9125;DHT22;4597;48.730;9.114;2023-03-14T04:16:17;10.30;99.90
9125;DHT22;4597;48.730;9.114;2023-03-14T04:18:43;10.30;99.90
9125;DHT22;4597;48.730;9.114;2023-03-14T04:21:09;10.20;99.90
9125;DHT22;4597;48.730;9.114;2023-03-14T04:23:35;10.20;99.90
9125;DHT22;4597;48.730;9.114;2023-03-14T04:26:00;10.20;99.90
9125;DHT22;4597;48.730;9.114;2023-03-14T04:28:26;10.20;99.90
9125;DHT22;4597;48.730;9.114;2023-03-14T04:30:51;10.20;99.90
9125;DHT22;4597;48.730;9.114;2023-03-14T04:33:17;10.30;99.90
9125;DHT22;4597;48.730;9.114;2023-03-14T04:35:43;10.20;99.90
9125;DHT22;4597;48.730;9.114;2023-03-14T04:38:10;10.20;99.90
9125;DHT22;4597;48.730;9.114;2023-03-14T04:40:42;10.20;99.90
9125;DHT22;4597;48.730;9.114;2023-03-14T04:43:10;10.20;99.90
9125;DHT22;4597;48.730;9.114;2023-03-14T04:45:35;10.10;99.90
9125;DHT22;4597;48.730;9.114;2023-03-14T04:48:01;10.10;99.90
9125;DHT22;4597;48.730;9.114;2023-03-14T04:50:27;10.10;99.90
9125;DHT22;4597;48.730;9.114;2023-03-14T04:52:52;10.10;99.90
9125;DHT22;4597;48.730;9.114;2023-03-14T04:55:18;10.20;99.90
9125;DHT22;4597;48.730;9.114;2023-03-14T04:57:43;10.10;99.90
9125;DHT22;4597;48.730;9.114;2023-03-14T05:00:11;10.10;99.90
9125;DHT22;4597;48.730;9.114;2023-03-14T05:02:37;10.10;99.90
9125;DHT22;4597;48.730;9.114;2023-03-14T05:05:03;10.00;99.90
9125;DHT22;4597;48.730;9.114;2023-03-14T05:07:28;10.00;99.90
9125;DHT22;4597;48.730;9.114;2023-03-14T05:09:54;10.10;99.90
9125;DHT22;4597;48.730;9.114;2023-03-14T05:12:20;10.00;99.90
9125;DHT22;4597;48.730;9.114;2023-03-14T05:14:46;10.00;99.90
9125;DHT22;4597;48.730;9.114;2023-03-14T05:17:11;10.00;99.90
9125;DHT22;4597;48.730;9.114;2023-03-14T05:19:39;10.00;99.90
9125;DHT22;4597;48.730;9.114;2023-03-14T05:22:05;10.00;99.90
9125;DHT22;4597;48.730;9.114;2023-03-14T05:24:31;9.90;99.90
9125;DHT22;4597;48.730;9.114;2023-03-14T05:26:56;9.90;99.90
9125;DHT22;4597;48.730;9.114;2023-03-14T05:29:22;9.90;99.90
9125;DHT22;4597;48.730;9.114;2023-03-14T05:31:47;9.90;99.90
9125;DHT22;4597;48.730;9.114;2023-03-14T05:34:13;9.90;99.90
9125;DHT22;4597;48.730;9.114;2023-03-14T05:36:38;9.90;99.90
9125;DHT22;4597;48.730;9.114;2023-03-14T05:39:04;9.80;99.90
9125;DHT22;4597;48.730;9.114;2023-03-14T05:41:29;9.80;99.90
9125;DHT22;4597;48.730;9.114;2023-03-14T05:43:55;9.80;99.90
9125;DHT22;4597;48.730;9.114;2023-03-14T05:46:20;9.80;99.90
9125;DHT22;4597;48.730;9.114;2023-03-14T05:48:46;9.80;99.90
9125;DHT22;4597;48.730;9.114;2023-03-14T05:51:11;9.90;99.90
9125;DHT22;4597;48.730;9.114;2023-03-14T05:53:37;9.90;99.90
9125;DHT22;4597;48.730;9.114;2023-03-14T05:56:02;9.90;99.90
9125;DHT22;4597;48.730;9.114;2023-03-14T05:58:28;9.90;99.90
9125;DHT22;4597;48.730;9.114;2023-03-14T06:00:53;9.90;99.90
9125;DHT22;4597;48.730;9.114;2023-03-14T06:03:19;9.90;99.90
9125;DHT22;4597;48.730;9.114;2023-03-14T06:05:44;9.90;99.90
9125;DHT22;4597;48.730;9.114;2023-03-14T06:08:10;9.80;99.90
9125;DHT22;4597;48.730;9.114;2023-03-14T06:10:36;9.80;99.90
9125;DHT22;4597;48.730;9.114;2023-03-14T06:13:01;9.80;99.90
9125;DHT22;4597;48.730;9.114;2023-03-14T06:15:27;9.80;99.90
9125;DHT22;4597;48.730;9.114;2023-03-14T06:17:54;9.80;99.90
9125;DHT22;4597;48.730;9.114;2023-03-14T06:20:20;9.70;99.90
9125;DHT22;4597;48.730;9.114;2023-03-14T06:22:46;9.70;99.90
9125;DHT22;4597;48.730;9.114;2023-03-14T06:25:11;9.60;99.90
9125;DHT22;4597;48.730;9.114;2023-03-14T06:27:37;9.60;99.90
9125;DHT22;4597;48.730;9.114;2023-03-14T06:30:03;9.60;99.90
9125;DHT22;4597;48.730;9.114;2023-03-14T06:32:28;9.60;99.90
9125;DHT22;4597;48.730;9.114;2023-03-14T06:34:54;9.60;99.90
9125;DHT22;4597;48.730;9.114;2023-03-14T06:37:20;9.60;99.90
9125;DHT22;4597;48.730;9.114;2023-03-14T06:39:45;9.60;99.90
9125;DHT22;4597;48.730;9.114;2023-03-14T06:42:10;9.60;99.90
9125;DHT22;4597;48.730;9.114;2023-03-14T06:44:36;9.60;99.90
9125;DHT22;4597;48.730;9.114;2023-03-14T06:47:02;9.50;99.90
9125;DHT22;4597;48.730;9.114;2023-03-14T06:49:27;9.50;99.90
9125;DHT22;4597;48.730;9.114;2023-03-14T06:51:53;9.60;99.90
9125;DHT22;4597;48.730;9.114;2023-03-14T06:54:18;9.60;99.90
9125;DHT22;4597;48.730;9.114;2023-03-14T06:56:44;9.60;99.90
9125;DHT22;4597;48.730;9.114;2023-03-14T06:59:09;9.60;99.90
9125;DHT22;4597;48.730;9.114;2023-03-14T07:01:35;9.60;99.90
9125;DHT22;4597;48.730;9.114;2023-03-14T07:04:01;9.70;99.90
9125;DHT22;4597;48.730;9.114;2023-03-14T07:06:27;9.70;99.90
9125;DHT22;4597;48.730;9.114;2023-03-14T07:08:55;9.70;99.90
9125;DHT22;4597;48.730;9.114;2023-03-14T07:11:21;9.80;99.90
9125;DHT22;4597;48.730;9.114;2023-03-14T07:13:47;9.90;99.90
9125;DHT22;4597;48.730;9.114;2023-03-14T07:16:12;10.00;99.90
9125;DHT22;4597;48.730;9.114;2023-03-14T07:18:38;10.20;99.90
9125;DHT22;4597;48.730;9.114;2023-03-14T07:21:05;10.20;99.90
9125;DHT22;4597;48.730;9.114;2023-03-14T07:23:31;10.30;99.90
9125;DHT22;4597;48.730;9.114;2023-03-14T07:25:56;10.30;99.90
9125;DHT22;4597;48.730;9.114;2023-03-14T07:28:22;10.40;99.90
9125;DHT22;4597;48.730;9.114;2023-03-14T07:30:48;10.50;99.90
9125;DHT22;4597;48.730;9.114;2023-03-14T07:33:14;10.50;99.90
9125;DHT22;4597;48.730;9.114;2023-03-14T07:35:40;10.60;99.90
9125;DHT22;4597;48.730;9.114;2023-03-14T07:38:05;10.60;99.90
9125;DHT22;4597;48.730;9.114;2023-03-14T07:40:31;10.60;99.90
9125;DHT22;4597;48.730;9.114;2023-03-14T07:42:56;10.70;99.90
9125;DHT22;4597;48.730;9.114;2023-03-14T07:45:22;10.80;99.90
9125;DHT22;4597;48.730;9.114;2023-03-14T07:47:48;11.00;99.90
9125;DHT22;4597;48.730;9.114;2023-03-14T07:50:13;11.10;99.90
9125;DHT22;4597;48.730;9.114;2023-03-14T07:52:39;11.10;99.90
9125;DHT22;4597;48.730;9.114;2023-03-14T07:55:05;11.10;99.90
9125;DHT22;4597;48.730;9.114;2023-03-14T07:57:31;11.10;99.90
9125;DHT22;4597;48.730;9.114;2023-03-14T07:59:56;11.20;99.90
9125;DHT22;4597;48.730;9.114;2023-03-14T08:02:22;11.40;99.90
9125;DHT22;4597;48.730;9.114;2023-03-14T08:04:49;11.40;99.90
9125;DHT22;4597;48.730;9.114;2023-03-14T08:07:15;11.40;99.90
9125;DHT22;4597;48.730;9.114;2023-03-14T08:09:41;11.40;99.90
9125;DHT22;4597;48.730;9.114;2023-03-14T08:12:07;11.40;99.90
9125;DHT22;4597;48.730;9.114;2023-03-14T08:14:32;11.40;99.90
9125;DHT22;4597;48.730;9.114;2023-03-14T08:16:58;11.50;99.90
9125;DHT22;4597;48.730;9.114;2023-03-14T08:19:23;11.60;99.90
9125;DHT22;4597;48.730;9.114;2023-03-14T08:21:49;11.70;99.90
9125;DHT22;4597;48.730;9.114;2023-03-14T08:24:15;11.70;99.90
9125;DHT22;4597;48.730;9.114;2023-03-14T08:26:41;11.80;99.90
9125;DHT22;4597;48.730;9.114;2023-03-14T08:29:06;11.90;99.90
9125;DHT22;4597;48.730;9.114;2023-03-14T08:31:34;12.00;99.90
9125;DHT22;4597;48.730;9.114;2023-03-14T08:34:00;12.10;99.90
9125;DHT22;4597;48.730;9.114;2023-03-14T08:36:25;12.20;99.90
9125;DHT22;4597;48.730;9.114;2023-03-14T08:38:51;12.40;99.90
9125;DHT22;4597;48.730;9.114;2023-03-14T08:41:16;12.50;99.90
9125;DHT22;4597;48.730;9.114;2023-03-14T08:43:42;12.60;99.90
9125;DHT22;4597;48.730;9.114;2023-03-14T08:46:07;12.60;99.90
9125;DHT22;4597;48.730;9.114;2023-03-14T08:48:33;12.50;99.90
9125;DHT22;4597;48.730;9.114;2023-03-14T08:51:10;12.50;99.90
9125;DHT22;4597;48.730;9.114;2023-03-14T08:53:36;12.30;99.90
9125;DHT22;4597;48.730;9.114;2023-03-14T08:56:02;12.40;99.90
9125;DHT22;4597;48.730;9.114;2023-03-14T08:58:29;12.40;99.90
9125;DHT22;4597;48.730;9.114;2023-03-14T09:00:55;12.20;99.90
9125;DHT22;4597;48.730;9.114;2023-03-14T09:03:20;12.20;99.90
9125;DHT22;4597;48.730;9.114;2023-03-14T09:05:49;12.10;99.90
9125;DHT22;4597;48.730;9.114;2023-03-14T09:08:14;12.00;99.90
9125;DHT22;4597;48.730;9.114;2023-03-14T09:10:40;12.00;99.90
9125;DHT22;4597;48.730;9.114;2023-03-14T09:13:05;11.90;99.90
9125;DHT22;4597;48.730;9.114;2023-03-14T09:15:31;11.90;99.90
9125;DHT22;4597;48.730;9.114;2023-03-14T09:17:56;11.90;99.90
9125;DHT22;4597;48.730;9.114;2023-03-14T09:20:22;11.90;99.90
9125;DHT22;4597;48.730;9.114;2023-03-14T09:22:48;11.80;99.90
9125;DHT22;4597;48.730;9.114;2023-03-14T09:25:13;11.90;99.90
9125;DHT22;4597;48.730;9.114;2023-03-14T09:27:39;11.80;99.90
9125;DHT22;4597;48.730;9.114;2023-03-14T09:30:05;11.70;99.90
9125;DHT22;4597;48.730;9.114;2023-03-14T09:32:31;11.80;99.90
9125;DHT22;4597;48.730;9.114;2023-03-14T09:34:57;11.80;99.90
9125;DHT22;4597;48.730;9.114;2023-03-14T09:37:22;11.80;99.90
9125;DHT22;4597;48.730;9.114;2023-03-14T09:39:48;11.80;99.90
9125;DHT22;4597;48.730;9.114;2023-03-14T09:42:17;11.80;99.90
9125;DHT22;4597;48.730;9.114;2023-03-14T09:47:15;11.80;99.90
9125;DHT22;4597;48.730;9.114;2023-03-14T09:49:42;11.80;99.90
9125;DHT22;4597;48.730;9.114;2023-03-14T09:52:14;11.80;99.90
9125;DHT22;4597;48.730;9.114;2023-03-14T09:54:52;11.80;99.90
9125;DHT22;4597;48.730;9.114;2023-03-14T09:57:21;11.80;99.90
9125;DHT22;4597;48.730;9.114;2023-03-14T09:59:49;11.90;99.90
9125;DHT22;4597;48.730;9.114;2023-03-14T10:02:19;12.00;99.90
9125;DHT22;4597;48.730;9.114;2023-03-14T10:04:46;12.00;99.90
9125;DHT22;4597;48.730;9.114;2023-03-14T10:07:15;12.10;99.90
9125;DHT22;4597;48.730;9.114;2023-03-14T10:09:44;12.20;99.90
9125;DHT22;4597;48.730;9.114;2023-03-14T10:12:09;12.20;99.90
9125;DHT22;4597;48.730;9.114;2023-03-14T10:14:49;12.20;99.90
9125;DHT22;4597;48.730;9.114;2023-03-14T10:17:16;12.20;99.90
9125;DHT22;4597;48.730;9.114;2023-03-14T10:19:59;12.20;99.90
9125;DHT22;4597;48.730;9.114;2023-03-14T10:22:34;12.30;99.90
9125;DHT22;4597;48.730;9.114;2023-03-14T10:25:03;12.40;99.90
9125;DHT22;4597;48.730;9.114;2023-03-14T10:27:32;12.50;99.90
9125;DHT22;4597;48.730;9.114;2023-03-14T10:30:00;12.40;99.90
9125;DHT22;4597;48.730;9.114;2023-03-14T10:32:37;12.50;99.90
9125;DHT22;4597;48.730;9.114;2023-03-14T10:37:34;12.50;99.90
9125;DHT22;4597;48.730;9.114;2023-03-14T10:40:00;12.50;99.90
9125;DHT22;4597;48.730;9.114;2023-03-14T10:42:32;12.50;99.90
9125;DHT22;4597;48.730;9.114;2023-03-14T10:45:02;12.40;99.90
9125;DHT22;4597;48.730;9.114;2023-03-14T10:47:28;12.30;99.90
9125;DHT22;4597;48.730;9.114;2023-03-14T10:49:55;12.30;99.90
9125;DHT22;4597;48.730;9.114;2023-03-14T10:52:29;12.20;99.90
9125;DHT22;4597;48.730;9.114;2023-03-14T10:55:01;12.00;99.90
9125;DHT22;4597;48.730;9.114;2023-03-14T10:57:27;11.90;99.90
9125;DHT22;4597;48.730;9.114;2023-03-14T10:59:54;11.80;99.90
9125;DHT22;4597;48.730;9.114;2023-03-14T11:05:40;11.70;99.90
9125;DHT22;4597;48.730;9.114;2023-03-14T11:17:00;11.50;99.90
9125;DHT22;4597;48.730;9.114;2023-03-14T11:27:45;11.40;99.90
9125;DHT22;4597;48.730;9.114;2023-03-14T11:30:35;11.40;99.90
9125;DHT22;4597;48.730;9.114;2023-03-14T11:33:35;11.30;99.90
9125;DHT22;4597;48.730;9.114;2023-03-14T11:36:07;11.30;99.90
9125;DHT22;4597;48.730;9.114;2023-03-14T11:41:04;11.40;99.90
9125;DHT22;4597;48.730;9.114;2023-03-14T11:43:35;11.40;99.90
9125;DHT22;4597;48.730;9.114;2023-03-14T11:46:14;11.40;99.90
9125;DHT22;4597;48.730;9.114;2023-03-14T11:48:50;11.30;99.90
9125;DHT22;4597;48.730;9.114;2023-03-14T11:51:28;11.20;99.90
9125;DHT22;4597;48.730;9.114;2023-03-14T11:54:03;11.20;99.90
9125;DHT22;4597;48.730;9.114;2023-03-14T11:56:41;11.20;99.90
9125;DHT22;4597;48.730;9.114;2023-03-14T12:05:20;10.90;99.90
9125;DHT22;4597;48.730;9.114;2023-03-14T12:08:19;10.80;99.90
9125;DHT22;4597;48.730;9.114;2023-03-14T12:10:53;10.80;99.90
9125;DHT22;4597;48.730;9.114;2023-03-14T12:13:20;10.80;99.90
9125;DHT22;4597;48.730;9.114;2023-03-14T12:16:00;10.60;99.90
9125;DHT22;4597;48.730;9.114;2023-03-14T12:18:31;10.50;99.90
9125;DHT22;4597;48.730;9.114;2023-03-14T12:21:02;10.30;99.90
9125;DHT22;4597;48.730;9.114;2023-03-14T12:23:55;10.20;99.90
9125;DHT22;4597;48.730;9.114;2023-03-14T12:26:24;10.10;99.90
9125;DHT22;4597;48.730;9.114;2023-03-14T12:39:39;8.70;99.90
9125;DHT22;4597;48.730;9.114;2023-03-14T12:47:52;8.90;99.90
9125;DHT22;4597;48.730;9.114;2023-03-14T12:50:24;9.00;99.90
9125;DHT22;4597;48.730;9.114;2023-03-14T12:53:33;9.20;99.90
9125;DHT22;4597;48.730;9.114;2023-03-14T13:01:34;9.70;99.90
9125;DHT22;4597;48.730;9.114;2023-03-14T13:04:11;9.90;99.90
9125;DHT22;4597;48.730;9.114;2023-03-14T13:06:52;9.90;99.90
9125;DHT22;4597;48.730;9.114;2023-03-14T13:12:14;10.10;99.90
9125;DHT22;4597;48.730;9.114;2023-03-14T13:14:44;10.20;99.90
9125;DHT22;4597;48.730;9.114;2023-03-14T13:17:15;10.20;99.90
9125;DHT22;4597;48.730;9.114;2023-03-14T13:19:44;10.10;99.30
9125;DHT22;4597;48.730;9.114;2023-03-14T13:22:21;10.00;95.50
9125;DHT22;4597;48.730;9.114;2023-03-14T13:24:47;10.00;92.50
9125;DHT22;4597;48.730;9.114;2023-03-14T13:27:18;9.80;90.80
9125;DHT22;4597;48.730;9.114;2023-03-14T13:29:48;9.80;91.40
9125;DHT22;4597;48.730;9.114;2023-03-14T13:32:20;9.80;91.40
9125;DHT22;4597;48.730;9.114;2023-03-14T13:34:46;10.00;89.50
9125;DHT22;4597;48.730;9.114;2023-03-14T13:37:21;10.00;87.80
9125;DHT22;4597;48.730;9.114;2023-03-14T13:39:56;9.90;86.10
9125;DHT22;4597;48.730;9.114;2023-03-14T13:42:27;9.90;85.00
9125;DHT22;4597;48.730;9.114;2023-03-14T13:44:54;9.80;78.50
9125;DHT22;4597;48.730;9.114;2023-03-14T13:47:23;9.80;78.00
9125;DHT22;4597;48.730;9.114;2023-03-14T13:49:49;9.80;76.00
9125;DHT22;4597;48.730;9.114;2023-03-14T13:52:30;9.80;74.50
9125;DHT22;4597;48.730;9.114;2023-03-14T13:54:58;9.90;71.90
9125;DHT22;4597;48.730;9.114;2023-03-14T13:57:24;9.80;68.30
9125;DHT22;4597;48.730;9.114;2023-03-14T13:59:59;9.60;69.40
9125;DHT22;4597;48.730;9.114;2023-03-14T14:02:26;9.60;70.80
9125;DHT22;4597;48.730;9.114;2023-03-14T14:04:52;9.60;71.50
9125;DHT22;4597;48.730;9.114;2023-03-14T14:07:18;9.60;70.40
9125;DHT22;4597;48.730;9.114;2023-03-14T14:09:47;9.60;69.60
9125;DHT22;4597;48.730;9.114;2023-03-14T14:12:23;9.60;68.90
9125;DHT22;4597;48.730;9.114;2023-03-14T14:15:06;9.70;67.00
9125;DHT22;4597;48.730;9.114;2023-03-14T14:17:43;9.70;67.00
9125;DHT22;4597;48.730;9.114;2023-03-14T14:20:30;9.60;65.70
9125;DHT22;4597;48.730;9.114;2023-03-14T14:23:07;9.60;64.60
9125;DHT22;4597;48.730;9.114;2023-03-14T14:25:34;9.50;65.80
9125;DHT22;4597;48.730;9.114;2023-03-14T14:28:15;9.40;66.40
9125;DHT22;4597;48.730;9.114;2023-03-14T14:30:41;9.40;64.60
9125;DHT22;4597;48.730;9.114;2023-03-14T14:33:20;9.50;66.70
9125;DHT22;4597;48.730;9.114;2023-03-14T14:35:55;9.40;66.00
9125;DHT22;4597;48.730;9.114;2023-03-14T14:38:22;9.40;66.90
9125;DHT22;4597;48.730;9.114;2023-03-14T14:40:50;9.40;64.80
9125;DHT22;4597;48.730;9.114;2023-03-14T14:43:25;9.40;66.10
9125;DHT22;4597;48.730;9.114;2023-03-14T14:45:53;9.50;66.40
9125;DHT22;4597;48.730;9.114;2023-03-14T14:48:22;9.80;67.90
9125;DHT22;4597;48.730;9.114;2023-03-14T14:50:49;10.20;64.40
9125;DHT22;4597;48.730;9.114;2023-03-14T14:53:35;10.60;62.20
9125;DHT22;4597;48.730;9.114;2023-03-14T14:56:26;11.00;60.40
9125;DHT22;4597;48.730;9.114;2023-03-14T14:58:59;11.20;59.50
9125;DHT22;4597;48.730;9.114;2023-03-14T15:01:34;11.40;57.60
9125;DHT22;4597;48.730;9.114;2023-03-14T15:04:01;11.50;56.10
9125;DHT22;4597;48.730;9.114;2023-03-14T15:06:28;11.50;55.40
9125;DHT22;4597;48.730;9.114;2023-03-14T15:08:55;11.70;53.00
9125;DHT22;4597;48.730;9.114;2023-03-14T15:11:22;11.50;53.70
9125;DHT22;4597;48.730;9.114;2023-03-14T15:13:52;11.20;55.20
9125;DHT22;4597;48.730;9.114;2023-03-14T15:16:20;10.80;54.90
9125;DHT22;4597;48.730;9.114;2023-03-14T15:18:50;10.40;55.40
9125;DHT22;4597;48.730;9.114;2023-03-14T15:21:17;10.00;56.10
9125;DHT22;4597;48.730;9.114;2023-03-14T15:23:43;10.00;56.90
9125;DHT22;4597;48.730;9.114;2023-03-14T15:26:14;10.00;57.50
9125;DHT22;4597;48.730;9.114;2023-03-14T15:28:40;9.90;58.20
9125;DHT22;4597;48.730;9.114;2023-03-14T15:31:09;9.90;59.50
9125;DHT22;4597;48.730;9.114;2023-03-14T15:33:35;9.80;60.40
9125;DHT22;4597;48.730;9.114;2023-03-14T15:36:02;9.70;61.10
9125;DHT22;4597;48.730;9.114;2023-03-14T15:38:28;9.70;61.80
9125;DHT22;4597;48.730;9.114;2023-03-14T15:40:54;9.60;61.60
9125;DHT22;4597;48.730;9.114;2023-03-14T15:43:20;9.50;61.90
9125;DHT22;4597;48.730;9.114;2023-03-14T15:45:45;9.40;63.30
9125;DHT22;4597;48.730;9.114;2023-03-14T15:48:17;9.50;64.30
9125;DHT22;4597;48.730;9.114;2023-03-14T15:50:43;9.50;65.80
9125;DHT22;4597;48.730;9.114;2023-03-14T15:53:09;9.70;65.10
9125;DHT22;4597;48.730;9.114;2023-03-14T15:55:34;9.80;65.20
9125;DHT22;4597;48.730;9.114;2023-03-14T15:58:00;10.80;62.80
9125;DHT22;4597;48.730;9.114;2023-03-14T16:00:28;11.80;57.90
9125;DHT22;4597;48.730;9.114;2023-03-14T16:02:53;11.50;58.00
9125;DHT22;4597;48.730;9.114;2023-03-14T16:05:19;10.90;59.20
9125;DHT22;4597;48.730;9.114;2023-03-14T16:07:45;10.40;61.00
9125;DHT22;4597;48.730;9.114;2023-03-14T16:10:12;10.00;63.80
9125;DHT22;4597;48.730;9.114;2023-03-14T16:12:38;9.70;66.10
9125;DHT22;4597;48.730;9.114;2023-03-14T16:15:04;9.70;67.70
9125;DHT22;4597;48.730;9.114;2023-03-14T16:17:31;9.40;69.00
9125;DHT22;4597;48.730;9.114;2023-03-14T16:19:57;9.40;70.20
9125;DHT22;4597;48.730;9.114;2023-03-14T16:22:22;9.40;71.20
9125;DHT22;4597;48.730;9.114;2023-03-14T16:24:48;9.40;71.60
9125;DHT22;4597;48.730;9.114;2023-03-14T16:27:14;9.30;73.00
9125;DHT22;4597;48.730;9.114;2023-03-14T16:29:40;9.20;74.10
9125;DHT22;4597;48.730;9.114;2023-03-14T16:32:06;9.20;75.70
9125;DHT22;4597;48.730;9.114;2023-03-14T16:34:31;9.10;81.80
9125;DHT22;4597;48.730;9.114;2023-03-14T16:36:57;9.10;87.00
9125;DHT22;4597;48.730;9.114;2023-03-14T16:39:22;9.00;89.90
9125;DHT22;4597;48.730;9.114;2023-03-14T16:41:48;9.10;96.70
9125;DHT22;4597;48.730;9.114;2023-03-14T16:44:13;9.00;95.80
9125;DHT22;4597;48.730;9.114;2023-03-14T16:46:40;8.90;96.80
9125;DHT22;4597;48.730;9.114;2023-03-14T16:49:06;8.80;99.20
9125;DHT22;4597;48.730;9.114;2023-03-14T16:51:31;8.70;99.90
9125;DHT22;4597;48.730;9.114;2023-03-14T16:53:57;8.50;97.50
9125;DHT22;4597;48.730;9.114;2023-03-14T16:56:23;8.30;99.90
9125;DHT22;4597;48.730;9.114;2023-03-14T16:58:49;8.10;99.90
9125;DHT22;4597;48.730;9.114;2023-03-14T17:01:16;8.00;99.90
9125;DHT22;4597;48.730;9.114;2023-03-14T17:03:48;7.80;99.90
9125;DHT22;4597;48.730;9.114;2023-03-14T17:06:19;7.70;99.90
9125;DHT22;4597;48.730;9.114;2023-03-14T17:08:45;7.70;99.90
9125;DHT22;4597;48.730;9.114;2023-03-14T17:11:11;7.60;99.90
9125;DHT22;4597;48.730;9.114;2023-03-14T17:13:37;7.60;99.90
9125;DHT22;4597;48.730;9.114;2023-03-14T17:16:03;7.50;99.90